createdAt,value
2022-12-14T00:02:04.084Z,24.35
2022-12-14T00:07:11.267Z,24.27
2022-12-14T00:12:18.428Z,23.70
2022-12-14T00:17:25.611Z,23.29
2022-12-14T00:22:32.893Z,23.36
2022-12-14T00:27:40.144Z,23.57
2022-12-14T00:32:47.306Z,23.65
2022-12-14T00:37:54.464Z,23.81
2022-12-14T00:43:01.718Z,23.70
2022-12-14T00:48:08.874Z,23.51
2022-12-14T00:53:16.105Z,23.53
2022-12-14T00:58:23.361Z,23.55
2022-12-14T01:03:31.167Z,23.67
2022-12-14T01:08:37.792Z,23.68
2022-12-14T01:13:45.023Z,23.84
2022-12-14T01:18:52.222Z,23.88
2022-12-14T01:23:59.403Z,23.94
2022-12-14T01:29:09.055Z,24.05
2022-12-14T01:34:14.624Z,24.15
2022-12-14T01:39:21.804Z,24.19
2022-12-14T01:44:29.187Z,24.35
2022-12-14T01:49:36.204Z,24.38
2022-12-14T01:54:43.371Z,24.46
2022-12-14T01:59:50.589Z,24.50
2022-12-14T02:04:57.809Z,24.60
2022-12-14T02:10:05.072Z,24.71
2022-12-14T02:15:12.341Z,24.75
2022-12-14T02:20:19.491Z,24.81
2022-12-14T02:25:26.713Z,24.84
2022-12-14T02:30:33.916Z,24.95
2022-12-14T02:35:41.127Z,25.00
2022-12-14T02:40:48.331Z,24.91
2022-12-14T02:45:55.586Z,24.91
2022-12-14T02:51:02.746Z,24.92
2022-12-14T02:56:09.886Z,24.92
2022-12-14T03:01:17.227Z,24.98
2022-12-14T03:06:24.252Z,24.97
2022-12-14T03:11:31.467Z,25.05
2022-12-14T03:16:38.809Z,25.09
2022-12-14T03:21:45.932Z,25.11
2022-12-14T03:26:53.190Z,25.20
2022-12-14T03:32:00.495Z,25.20
2022-12-14T03:37:07.586Z,25.24
2022-12-14T03:42:14.790Z,25.39
2022-12-14T03:47:22.046Z,25.51
2022-12-14T03:52:29.189Z,25.41
2022-12-14T03:57:36.401Z,25.52
2022-12-14T04:02:43.812Z,25.41
2022-12-14T04:07:50.826Z,25.40
2022-12-14T04:12:58.020Z,25.37
2022-12-14T04:18:05.271Z,25.33
2022-12-14T04:23:12.438Z,25.30
2022-12-14T04:28:19.603Z,25.34
2022-12-14T04:33:27.327Z,25.24
2022-12-14T04:38:34.036Z,25.28
2022-12-14T04:43:41.236Z,25.37
2022-12-14T04:48:48.465Z,25.42
2022-12-14T04:53:55.674Z,25.46
2022-12-14T04:59:02.875Z,25.45
2022-12-14T05:04:12.722Z,25.58
2022-12-14T05:09:17.260Z,25.66
2022-12-14T05:14:24.434Z,25.65
2022-12-14T05:19:31.699Z,25.38
2022-12-14T05:24:38.807Z,25.43
2022-12-14T05:29:45.964Z,25.49
2022-12-14T05:34:53.179Z,25.47
2022-12-14T05:40:00.386Z,25.55
2022-12-14T05:45:07.594Z,25.48
2022-12-14T05:50:14.805Z,25.53
2022-12-14T05:55:21.964Z,25.49
2022-12-14T06:00:29.211Z,25.54
2022-12-14T06:05:36.451Z,25.54
2022-12-14T06:10:43.592Z,25.56
2022-12-14T06:15:50.930Z,25.59
2022-12-14T06:20:58.102Z,25.62
2022-12-14T06:26:05.299Z,25.67
2022-12-14T06:31:12.595Z,25.74
2022-12-14T06:36:19.662Z,25.83
2022-12-14T06:41:26.911Z,26.02
2022-12-14T06:46:34.165Z,25.79
2022-12-14T06:51:41.398Z,25.78
2022-12-14T06:56:48.552Z,25.37
2022-12-14T07:01:55.849Z,25.04
2022-12-14T07:07:02.943Z,24.87
2022-12-14T07:12:10.134Z,24.73
2022-12-14T07:17:17.383Z,24.56
2022-12-14T07:22:24.547Z,24.51
2022-12-14T07:27:31.684Z,24.49
2022-12-14T07:32:38.922Z,24.29
2022-12-14T07:37:49.226Z,24.20
2022-12-14T07:42:53.382Z,24.07
2022-12-14T07:48:00.540Z,23.89
2022-12-14T07:53:07.734Z,23.84
2022-12-14T07:58:14.866Z,23.81
2022-12-14T08:03:22.116Z,24.25
2022-12-14T08:08:29.284Z,24.22
2022-12-14T08:13:36.499Z,24.19
2022-12-14T08:18:43.733Z,24.17
2022-12-14T08:23:50.958Z,24.30
2022-12-14T08:28:58.158Z,24.58
2022-12-14T08:34:05.378Z,24.47
2022-12-14T08:39:12.652Z,24.39
2022-12-14T08:44:19.755Z,24.82
2022-12-14T08:49:32.081Z,24.76
2022-12-14T08:54:34.136Z,25.13
2022-12-14T09:00:02.266Z,25.13
2022-12-14T09:04:48.580Z,25.65
2022-12-14T09:09:55.850Z,25.57
2022-12-14T09:15:03.135Z,25.05
2022-12-14T09:20:10.316Z,24.96
2022-12-14T09:25:17.501Z,25.30
2022-12-14T09:30:26.747Z,24.90
2022-12-14T09:35:32.046Z,24.82
2022-12-14T09:40:39.359Z,24.61
2022-12-14T09:45:46.596Z,25.15
2022-12-14T09:50:53.816Z,24.52
2022-12-14T09:56:00.956Z,24.77
2022-12-14T10:01:08.171Z,24.73
2022-12-14T10:06:15.322Z,24.68
2022-12-14T10:11:22.548Z,24.56
2022-12-14T10:16:29.773Z,24.62
2022-12-14T10:21:36.914Z,24.84
2022-12-14T10:26:44.164Z,24.85
2022-12-14T10:31:51.451Z,24.79
2022-12-14T10:37:01.359Z,24.52
2022-12-14T10:42:08.524Z,24.54
2022-12-14T10:47:15.684Z,26.12
2022-12-14T10:52:22.863Z,24.55
2022-12-14T10:57:30.055Z,24.17
2022-12-14T11:02:37.358Z,24.16
2022-12-14T11:07:44.445Z,24.17
2022-12-14T11:12:51.600Z,24.32
2022-12-14T11:17:59.141Z,24.44
2022-12-14T11:23:06.258Z,24.51
2022-12-14T11:28:13.471Z,24.72
2022-12-14T11:33:20.686Z,24.60
2022-12-14T11:38:28.283Z,24.56
2022-12-14T11:43:35.153Z,24.60
2022-12-14T11:48:42.425Z,24.62
2022-12-14T11:53:49.738Z,24.66
2022-12-14T11:58:56.941Z,24.76
2022-12-14T12:04:04.230Z,24.82
2022-12-14T12:09:11.343Z,24.98
2022-12-14T12:14:18.538Z,25.05
2022-12-14T12:19:25.732Z,25.13
2022-12-14T12:24:32.928Z,25.24
2022-12-14T12:29:40.203Z,25.36
2022-12-14T12:34:47.374Z,25.44
2022-12-14T12:39:54.643Z,25.46
2022-12-14T12:45:01.797Z,25.55
2022-12-14T12:50:09.181Z,25.65
2022-12-14T12:55:16.417Z,25.67
2022-12-14T13:00:23.598Z,25.79
2022-12-14T13:05:48.186Z,25.89
2022-12-14T13:10:41.998Z,25.87
2022-12-14T13:15:45.297Z,26.00
2022-12-14T13:20:52.425Z,26.04
2022-12-14T13:25:59.624Z,26.13
2022-12-14T13:31:06.917Z,26.16
2022-12-14T13:36:14.010Z,26.02
2022-12-14T13:41:21.218Z,26.28
2022-12-14T13:46:28.488Z,26.39
2022-12-14T13:51:35.609Z,26.40
2022-12-14T13:56:42.866Z,26.39
2022-12-14T14:01:50.230Z,26.49
2022-12-14T14:06:57.326Z,26.56
2022-12-14T14:12:04.523Z,26.65
2022-12-14T14:17:11.862Z,26.68
2022-12-14T14:22:23.689Z,26.70
2022-12-14T14:27:26.329Z,26.65
2022-12-14T14:32:33.516Z,26.75
2022-12-14T14:37:40.705Z,26.77
2022-12-14T14:42:47.942Z,26.86
2022-12-14T14:47:55.193Z,26.87
2022-12-14T14:53:02.408Z,26.91
2022-12-14T14:58:09.622Z,27.01
2022-12-14T15:03:17.155Z,27.18
2022-12-14T15:08:24.089Z,27.24
2022-12-14T15:13:31.684Z,27.28
2022-12-14T15:18:38.567Z,27.32
2022-12-14T15:23:49.287Z,27.38
2022-12-14T15:28:52.936Z,27.42
2022-12-14T15:34:00.168Z,27.45
2022-12-14T15:39:07.345Z,27.45
2022-12-14T15:44:14.552Z,27.46
2022-12-14T15:49:21.754Z,27.47
2022-12-14T15:54:28.893Z,27.47
2022-12-14T15:59:36.100Z,27.52
2022-12-14T16:04:43.302Z,27.56
2022-12-14T16:09:51.096Z,27.55
2022-12-14T16:14:57.666Z,27.60
2022-12-14T16:20:04.915Z,27.64
2022-12-14T16:25:12.068Z,27.66
2022-12-14T16:30:19.284Z,27.71
2022-12-14T16:35:26.525Z,27.80
2022-12-14T16:40:33.677Z,27.79
2022-12-14T16:45:41.287Z,27.87
2022-12-14T16:50:57.374Z,27.94
2022-12-14T16:55:56.031Z,28.02
2022-12-14T17:01:04.119Z,28.00
2022-12-14T17:06:11.184Z,28.00
2022-12-14T17:11:18.382Z,27.96
2022-12-14T17:16:25.680Z,28.02
2022-12-14T17:21:33.087Z,28.00
2022-12-14T17:26:40.405Z,27.99
2022-12-14T17:31:47.881Z,28.00
2022-12-14T17:36:55.630Z,28.02
2022-12-14T17:42:03.214Z,28.06
2022-12-14T17:47:10.633Z,28.16
2022-12-14T17:52:18.262Z,28.29
2022-12-14T17:57:27.076Z,28.24
2022-12-14T18:02:34.664Z,28.49
2022-12-14T18:07:41.924Z,28.61
2022-12-14T18:12:49.509Z,28.18
2022-12-14T18:17:57.543Z,27.93
2022-12-14T18:23:05.182Z,27.75
2022-12-14T18:28:12.771Z,27.77
2022-12-14T18:33:20.381Z,27.67
2022-12-14T18:38:28.020Z,27.48
2022-12-14T18:43:40.212Z,27.21
2022-12-14T18:48:43.228Z,27.06
2022-12-14T18:53:50.965Z,26.93
2022-12-14T18:58:58.657Z,26.83
2022-12-14T19:04:06.296Z,26.85
2022-12-14T19:09:13.841Z,26.90
2022-12-14T19:14:21.037Z,26.73
2022-12-14T19:19:35.628Z,26.60
2022-12-14T19:24:36.164Z,26.43
2022-12-14T19:29:43.727Z,26.30
2022-12-14T19:34:51.338Z,26.20
2022-12-14T19:39:58.983Z,26.09
2022-12-14T19:45:06.582Z,26.05
2022-12-14T19:50:14.077Z,25.93
2022-12-14T19:55:21.825Z,25.81
2022-12-14T20:00:29.411Z,25.75
2022-12-14T20:05:37.001Z,25.72
2022-12-14T20:10:44.774Z,25.55
2022-12-14T20:15:52.441Z,25.69
2022-12-14T20:20:59.979Z,25.96
2022-12-14T20:26:07.617Z,25.98
2022-12-14T20:31:15.276Z,25.87
2022-12-14T20:36:23.422Z,25.78
2022-12-14T20:41:30.875Z,26.04
2022-12-14T20:46:38.575Z,25.84
2022-12-14T20:51:46.167Z,25.79
2022-12-14T20:56:53.917Z,25.66
2022-12-14T21:02:01.812Z,25.35
2022-12-14T21:07:08.814Z,25.57
2022-12-14T21:12:16.247Z,25.58
2022-12-14T21:17:23.540Z,25.22
2022-12-14T21:22:31.039Z,25.05
2022-12-14T21:27:38.816Z,25.17
2022-12-14T21:32:46.007Z,24.95
2022-12-14T21:37:53.169Z,24.61
2022-12-14T21:43:00.499Z,24.62
2022-12-14T21:48:07.682Z,24.72
2022-12-14T21:53:14.839Z,24.66
2022-12-14T21:58:22.009Z,24.68
2022-12-14T22:03:29.627Z,24.81
2022-12-14T22:08:36.455Z,24.66
2022-12-14T22:13:43.743Z,24.29
2022-12-14T22:18:50.926Z,24.30
2022-12-14T22:23:58.133Z,24.52
2022-12-14T22:29:05.428Z,24.20
2022-12-14T22:34:12.576Z,23.95
2022-12-14T22:39:19.747Z,23.90
2022-12-14T22:44:26.900Z,23.90
2022-12-14T22:49:34.118Z,24.13
2022-12-14T22:54:41.336Z,24.05
2022-12-14T22:59:48.521Z,24.13
2022-12-14T23:04:55.708Z,24.06
2022-12-14T23:10:02.954Z,24.18
2022-12-14T23:15:10.181Z,24.12
2022-12-14T23:20:17.353Z,23.95
2022-12-14T23:25:24.567Z,24.07
2022-12-14T23:30:31.866Z,24.09
2022-12-14T23:35:38.916Z,24.11
2022-12-14T23:40:46.119Z,24.07
2022-12-14T23:45:53.371Z,24.40
2022-12-14T23:51:00.492Z,24.35
2022-12-14T23:56:07.692Z,24.33
